Time;durP1;ratioP1;P1;durP2;ratioP2;P2;SDS_P1;SDS_P2;PMS_P1;PMS_P2;Temp;Humidity;BMP_temperature;BMP_pressure;BME280_temperature;BME280_humidity;BME280_pressure;Samples;Min_cycle;Max_cycle;Signal;HPM_P1;HPM_P2
2023/08/29 00:01:50;;;;;;;2.88;2.55;;;15.70;99.90;;;;;;4998132;28;20026;-51
2023/08/29 00:04:16;;;;;;;5.47;2.80;;;15.70;99.90;;;;;;5014482;28;20035;-49
2023/08/29 00:06:41;;;;;;;3.90;2.65;;;15.70;99.90;;;;;;5014723;28;20029;-47
2023/08/29 00:09:07;;;;;;;3.42;2.90;;;15.70;99.90;;;;;;5014313;28;20097;-46
2023/08/29 00:11:33;;;;;;;3.30;3.00;;;15.70;99.90;;;;;;5014292;28;20439;-46
2023/08/29 00:13:59;;;;;;;4.32;3.05;;;15.70;99.90;;;;;;5032295;28;20082;-48
2023/08/29 00:16:25;;;;;;;4.90;2.83;;;15.70;99.90;;;;;;5014306;28;20469;-47
2023/08/29 00:18:50;;;;;;;8.15;3.88;;;15.70;99.90;;;;;;5032098;28;20105;-47
2023/08/29 00:21:16;;;;;;;5.57;3.42;;;15.70;99.90;;;;;;4997584;28;20491;-47
2023/08/29 00:23:41;;;;;;;6.78;3.20;;;15.70;99.90;;;;;;5031531;28;20025;-48
2023/08/29 00:26:07;;;;;;;7.47;3.03;;;15.70;99.90;;;;;;5014347;28;20034;-50
2023/08/29 00:28:32;;;;;;;2.85;2.65;;;15.70;99.90;;;;;;5031942;28;20075;-46
2023/08/29 00:30:58;;;;;;;3.92;2.80;;;15.70;99.90;;;;;;5014057;28;20400;-47
2023/08/29 00:33:23;;;;;;;3.00;2.70;;;15.70;99.90;;;;;;5014198;28;20079;-48
2023/08/29 00:35:49;;;;;;;4.60;2.58;;;15.70;99.90;;;;;;5031783;28;20370;-50
2023/08/29 00:38:15;;;;;;;3.53;2.40;;;15.70;99.90;;;;;;5032341;28;20449;-46
2023/08/29 00:40:40;;;;;;;4.72;2.67;;;15.70;99.90;;;;;;5013943;28;20389;-50
2023/08/29 00:43:06;;;;;;;3.50;2.58;;;15.70;99.90;;;;;;5013931;28;20041;-50
2023/08/29 00:45:37;;;;;;;4.82;3.03;;;15.70;99.90;;;;;;5031882;28;20030;-47
2023/08/29 00:48:04;;;;;;;3.38;3.10;;;15.60;99.90;;;;;;5031714;28;20142;-51
2023/08/29 00:50:30;;;;;;;4.72;3.55;;;15.60;99.90;;;;;;5013358;28;20030;-53
2023/08/29 00:53:00;;;;;;;3.25;3.05;;;15.50;99.90;;;;;;5013842;28;20552;-47
2023/08/29 00:55:28;;;;;;;5.68;3.80;;;15.40;99.90;;;;;;5013835;28;20378;-46
2023/08/29 00:57:57;;;;;;;3.47;3.05;;;15.30;99.90;;;;;;4997475;28;20079;-51
2023/08/29 01:00:27;;;;;;;3.30;3.08;;;15.30;99.90;;;;;;4997720;28;20030;-47
2023/08/29 01:02:53;;;;;;;3.58;3.28;;;15.20;99.90;;;;;;4997228;28;20033;-49
2023/08/29 01:05:22;;;;;;;3.70;3.35;;;15.30;99.90;;;;;;5013764;28;20032;-48
2023/08/29 01:07:52;;;;;;;4.28;3.00;;;15.30;99.90;;;;;;5014372;28;20057;-52
2023/08/29 01:10:28;;;;;;;5.35;2.80;;;15.40;99.90;;;;;;4997742;28;20048;-45
2023/08/29 01:13:17;;;;;;;3.25;3.05;;;15.40;99.90;;;;;;4997111;28;20515;-45
2023/08/29 01:15:48;;;;;;;3.53;3.22;;;15.40;99.90;;;;;;4997055;28;20064;-51
2023/08/29 01:18:15;;;;;;;3.95;2.95;;;15.40;99.90;;;;;;5013793;28;20029;-47
2023/08/29 01:20:42;;;;;;;4.57;3.30;;;15.40;99.90;;;;;;4996988;28;20112;-47
2023/08/29 01:23:16;;;;;;;3.40;3.15;;;15.40;99.90;;;;;;4997354;28;20101;-49
2023/08/29 01:26:11;;;;;;;5.00;2.53;;;15.50;99.90;;;;;;4997956;28;20120;-50
2023/08/29 01:28:38;;;;;;;4.75;2.60;;;15.40;99.90;;;;;;5009629;28;20160;-47
2023/08/29 01:31:07;;;;;;;3.75;2.92;;;15.40;99.90;;;;;;5013482;28;20017;-47
2023/08/29 01:33:34;;;;;;;3.05;2.85;;;15.40;99.90;;;;;;4997605;28;20026;-47
2023/08/29 01:36:00;;;;;;;4.43;3.05;;;15.40;99.90;;;;;;5016998;28;20067;-48
2023/08/29 01:38:26;;;;;;;4.55;2.97;;;15.40;99.90;;;;;;5017320;28;20128;-48
2023/08/29 01:40:52;;;;;;;3.30;3.00;;;15.40;99.90;;;;;;5034724;28;20536;-49
2023/08/29 01:43:17;;;;;;;4.28;2.70;;;15.40;99.90;;;;;;5034988;28;20032;-47
2023/08/29 01:45:43;;;;;;;3.03;2.78;;;15.90;99.90;;;;;;5017157;28;20029;-46
2023/08/29 01:48:11;;;;;;;3.35;3.03;;;15.40;99.90;;;;;;5034855;28;20029;-46
2023/08/29 01:50:38;;;;;;;3.30;2.95;;;15.30;99.90;;;;;;5016377;28;20349;-46
2023/08/29 01:53:04;;;;;;;5.32;3.00;;;15.30;99.90;;;;;;5000649;28;20663;-47
2023/08/29 01:55:30;;;;;;;2.78;2.67;;;15.30;99.90;;;;;;4984427;28;20232;-49
2023/08/29 01:57:58;;;;;;;4.20;2.88;;;15.30;99.90;;;;;;5017075;28;20391;-49
2023/08/29 02:00:24;;;;;;;5.95;2.80;;;15.30;99.90;;;;;;5016880;28;20052;-48
2023/08/29 02:02:50;;;;;;;5.65;2.97;;;15.30;99.90;;;;;;5000224;28;20021;-46
2023/08/29 02:05:16;;;;;;;3.20;2.90;;;15.40;99.90;;;;;;5016794;28;20033;-49
2023/08/29 02:07:41;;;;;;;3.00;2.80;;;15.30;99.90;;;;;;5000457;28;20370;-48
2023/08/29 02:10:08;;;;;;;2.85;2.65;;;15.30;99.90;;;;;;5016545;28;20083;-47
2023/08/29 02:12:33;;;;;;;3.17;2.90;;;15.40;99.90;;;;;;5000173;28;20456;-46
2023/08/29 02:14:59;;;;;;;7.65;2.95;;;15.40;99.90;;;;;;5016648;28;20108;-47
2023/08/29 02:17:24;;;;;;;5.07;2.83;;;15.40;99.90;;;;;;5034715;28;20385;-50
2023/08/29 02:19:50;;;;;;;3.75;3.17;;;15.50;99.90;;;;;;5034191;28;20057;-49
2023/08/29 02:22:15;;;;;;;8.07;3.22;;;15.50;99.90;;;;;;5016340;28;20029;-47
2023/08/29 02:24:41;;;;;;;5.53;2.92;;;15.50;99.90;;;;;;5034425;28;20040;-47
2023/08/29 02:27:07;;;;;;;10.18;3.17;;;15.60;99.90;;;;;;5034213;28;20033;-46
2023/08/29 02:29:32;;;;;;;3.90;2.60;;;15.60;99.90;;;;;;5033839;28;20040;-47
2023/08/29 02:31:58;;;;;;;2.60;2.50;;;15.60;99.90;;;;;;5016080;28;20436;-46
2023/08/29 02:34:24;;;;;;;10.27;3.15;;;15.70;99.90;;;;;;5033988;28;20022;-48
2023/08/29 02:36:50;;;;;;;6.95;2.83;;;15.60;99.90;;;;;;5034207;28;20083;-47
2023/08/29 02:39:16;;;;;;;5.25;2.53;;;15.60;99.90;;;;;;4999983;28;20462;-47
2023/08/29 02:41:42;;;;;;;4.38;3.45;;;15.60;99.90;;;;;;5033860;28;20026;-47
2023/08/29 02:44:07;;;;;;;6.38;3.33;;;15.50;99.90;;;;;;4999725;28;20068;-47
2023/08/29 02:46:33;;;;;;;5.32;3.63;;;15.50;99.90;;;;;;5033719;28;20057;-46
2023/08/29 02:48:58;;;;;;;5.60;3.40;;;15.40;99.90;;;;;;5016214;28;20090;-46
2023/08/29 02:51:24;;;;;;;4.18;3.00;;;15.40;99.90;;;;;;5015501;28;20045;-48
2023/08/29 02:53:49;;;;;;;4.82;3.33;;;15.30;99.90;;;;;;5015767;28;20049;-46
2023/08/29 02:56:15;;;;;;;4.53;3.17;;;15.30;99.90;;;;;;5016029;28;20040;-48
2023/08/29 02:58:42;;;;;;;5.57;3.42;;;15.30;99.90;;;;;;5015641;28;20403;-47
2023/08/29 03:01:11;;;;;;;4.88;3.30;;;15.30;99.90;;;;;;5033629;28;20405;-46
2023/08/29 03:03:37;;;;;;;4.88;3.08;;;15.30;99.90;;;;;;4999818;28;20037;-46
2023/08/29 03:06:02;;;;;;;6.22;3.03;;;15.30;99.90;;;;;;5033491;28;20248;-46
2023/08/29 03:08:28;;;;;;;4.68;3.53;;;15.40;99.90;;;;;;5015815;28;20437;-46
2023/08/29 03:10:54;;;;;;;12.27;5.22;;;15.40;99.90;;;;;;5015198;28;20220;-48
2023/08/29 03:13:21;;;;;;;5.80;3.42;;;15.40;99.90;;;;;;4982897;28;20035;-45
2023/08/29 03:15:47;;;;;;;3.38;3.10;;;15.40;99.90;;;;;;5033441;28;20076;-48
2023/08/29 03:18:13;;;;;;;3.60;3.40;;;15.40;99.90;;;;;;5015426;28;20056;-47
2023/08/29 03:20:40;;;;;;;7.72;3.70;;;15.40;99.90;;;;;;5015080;28;20109;-50
2023/08/29 03:23:05;;;;;;;4.28;3.97;;;15.30;99.90;;;;;;5015465;28;20030;-51
2023/08/29 03:25:31;;;;;;;7.28;3.95;;;15.30;99.90;;;;;;5015252;28;20036;-48
2023/08/29 03:27:56;;;;;;;4.00;3.60;;;15.20;99.90;;;;;;5033076;28;20108;-47
2023/08/29 03:30:22;;;;;;;4.15;3.72;;;15.20;99.90;;;;;;5015027;28;20036;-46
2023/08/29 03:32:50;;;;;;;5.32;3.58;;;15.20;99.90;;;;;;4998664;28;20014;-47
2023/08/29 03:35:16;;;;;;;5.30;4.20;;;15.20;99.90;;;;;;5032872;28;20482;-46
2023/08/29 03:37:41;;;;;;;4.20;3.88;;;15.10;99.90;;;;;;5032844;28;20026;-46
2023/08/29 03:40:08;;;;;;;6.15;4.07;;;15.20;99.90;;;;;;5014872;28;20029;-51
2023/08/29 03:42:33;;;;;;;10.13;4.60;;;15.10;99.90;;;;;;5014650;28;20055;-47
2023/08/29 03:44:59;;;;;;;3.70;3.40;;;15.20;99.90;;;;;;5014909;28;20021;-47
2023/08/29 03:47:24;;;;;;;4.60;3.45;;;15.20;99.90;;;;;;5014913;28;20555;-47
2023/08/29 03:49:50;;;;;;;6.03;4.85;;;15.30;99.90;;;;;;5014641;28;20032;-46
2023/08/29 03:52:26;;;;;;;9.27;5.15;;;15.20;99.90;;;;;;5014263;28;20021;-45
2023/08/29 03:54:55;;;;;;;4.60;4.20;;;15.20;99.90;;;;;;4998426;28;20032;-49
2023/08/29 03:57:27;;;;;;;6.57;4.45;;;15.30;99.90;;;;;;5014194;28;20024;-46
2023/08/29 03:59:53;;;;;;;6.13;4.72;;;15.30;99.90;;;;;;5032287;28;20033;-49
2023/08/29 04:02:18;;;;;;;5.00;3.80;;;15.30;99.90;;;;;;4998142;28;20025;-47
2023/08/29 04:04:44;;;;;;;4.82;4.32;;;15.20;99.90;;;;;;5032177;28;20056;-46
2023/08/29 04:07:10;;;;;;;7.38;3.90;;;15.20;99.90;;;;;;5014584;28;20033;-47
2023/08/29 04:09:36;;;;;;;7.10;4.00;;;15.20;99.90;;;;;;5032029;28;20103;-47
2023/08/29 04:12:02;;;;;;;5.03;3.90;;;15.20;99.90;;;;;;5014156;28;20026;-50
2023/08/29 04:14:28;;;;;;;4.28;3.95;;;15.20;99.90;;;;;;5031988;28;20099;-46
2023/08/29 04:16:53;;;;;;;5.32;4.57;;;15.20;99.90;;;;;;4998078;28;20532;-50
2023/08/29 04:19:20;;;;;;;10.20;4.97;;;15.30;99.90;;;;;;5014196;28;20025;-46
2023/08/29 04:21:45;;;;;;;10.40;4.97;;;15.30;99.90;;;;;;5032052;28;20069;-48
2023/08/29 04:24:11;;;;;;;6.07;5.50;;;15.20;99.90;;;;;;5014160;28;20064;-47
2023/08/29 04:26:36;;;;;;;8.05;4.93;;;15.30;99.90;;;;;;5014199;28;20033;-46
2023/08/29 04:29:02;;;;;;;6.35;4.93;;;15.30;99.90;;;;;;5013966;28;20508;-48
2023/08/29 04:31:27;;;;;;;5.03;4.30;;;15.30;99.90;;;;;;5013871;28;20508;-46
2023/08/29 04:33:53;;;;;;;6.55;3.92;;;15.20;99.90;;;;;;4997745;28;20090;-46
2023/08/29 04:36:19;;;;;;;6.25;4.75;;;15.20;99.90;;;;;;4997965;28;20036;-46
2023/08/29 04:38:47;;;;;;;6.47;4.47;;;15.30;99.90;;;;;;5031714;28;20026;-48
2023/08/29 04:41:13;;;;;;;4.75;4.35;;;15.20;99.90;;;;;;5013737;28;20029;-47
2023/08/29 04:43:39;;;;;;;5.10;4.45;;;15.20;99.90;;;;;;4997716;28;20020;-49
2023/08/29 04:46:07;;;;;;;4.75;4.20;;;15.20;99.90;;;;;;5031677;28;20488;-48
2023/08/29 04:48:33;;;;;;;7.95;4.60;;;15.30;99.90;;;;;;5031430;28;20044;-47
2023/08/29 04:50:59;;;;;;;9.52;5.63;;;15.30;99.90;;;;;;4997085;28;20026;-48
2023/08/29 04:53:25;;;;;;;4.45;4.03;;;15.30;99.90;;;;;;5031481;28;20028;-47
2023/08/29 04:55:59;;;;;;;6.63;3.85;;;15.30;99.90;;;;;;4997488;28;20444;-46
2023/08/29 04:58:25;;;;;;;4.55;4.10;;;15.30;99.90;;;;;;5013715;28;20045;-46
2023/08/29 05:00:50;;;;;;;8.15;4.20;;;15.30;99.90;;;;;;5031165;28;20234;-47
2023/08/29 05:03:16;;;;;;;4.63;4.22;;;15.30;99.90;;;;;;5013684;28;20037;-47
2023/08/29 05:05:46;;;;;;;5.25;4.30;;;15.30;99.90;;;;;;5031385;28;20033;-46
2023/08/29 05:08:11;;;;;;;8.05;3.97;;;15.30;99.90;;;;;;5013376;28;20087;-49
2023/08/29 05:10:37;;;;;;;5.82;3.60;;;15.40;99.90;;;;;;5030469;28;20493;-44
2023/08/29 05:13:03;;;;;;;8.18;4.07;;;15.40;99.90;;;;;;4997050;28;20537;-46
2023/08/29 05:15:29;;;;;;;5.93;4.13;;;15.40;99.90;;;;;;5031457;28;20061;-47
2023/08/29 05:17:55;;;;;;;6.70;4.53;;;15.40;99.90;;;;;;5013714;28;20048;-47
2023/08/29 05:20:20;;;;;;;6.80;4.40;;;15.40;99.90;;;;;;5013595;28;20029;-48
2023/08/29 05:22:46;;;;;;;8.73;4.70;;;15.40;99.90;;;;;;5030967;28;20400;-46
2023/08/29 05:25:11;;;;;;;6.32;4.35;;;15.40;99.90;;;;;;5013499;28;20033;-47
2023/08/29 05:27:37;;;;;;;8.57;4.57;;;15.40;99.90;;;;;;5013540;28;20029;-47
2023/08/29 05:30:04;;;;;;;5.93;4.80;;;15.40;99.90;;;;;;5031242;28;20037;-47
2023/08/29 05:32:30;;;;;;;6.63;4.32;;;15.40;99.90;;;;;;5013181;28;20030;-48
2023/08/29 05:34:55;;;;;;;6.18;5.22;;;15.40;99.90;;;;;;5013515;28;20076;-46
2023/08/29 05:37:21;;;;;;;10.18;4.57;;;15.50;99.90;;;;;;5031366;28;20068;-47
2023/08/29 05:39:47;;;;;;;6.28;4.70;;;15.50;99.90;;;;;;5013137;28;20404;-46
2023/08/29 05:42:12;;;;;;;5.40;4.18;;;15.50;99.90;;;;;;5012959;28;20025;-49
2023/08/29 05:44:38;;;;;;;5.40;4.90;;;15.50;99.90;;;;;;5031007;28;20040;-46
2023/08/29 05:47:04;;;;;;;6.18;4.30;;;15.50;99.90;;;;;;5013321;28;20393;-48
2023/08/29 05:49:29;;;;;;;9.18;4.78;;;15.50;99.90;;;;;;5013203;28;20032;-49
2023/08/29 05:51:55;;;;;;;5.60;3.85;;;15.50;99.90;;;;;;5012844;28;20026;-46
2023/08/29 05:54:20;;;;;;;8.45;3.88;;;15.60;99.90;;;;;;4996619;28;20026;-47
2023/08/29 05:56:46;;;;;;;4.57;3.80;;;15.60;99.90;;;;;;5013319;28;20021;-48
2023/08/29 05:59:12;;;;;;;7.38;4.43;;;15.60;99.90;;;;;;5013184;28;20029;-45
2023/08/29 06:01:37;;;;;;;12.98;4.32;;;15.60;99.90;;;;;;5013007;28;20037;-46
2023/08/29 06:04:04;;;;;;;6.38;3.20;;;15.70;99.90;;;;;;5030882;28;20032;-50
2023/08/29 06:06:31;;;;;;;4.93;4.18;;;15.70;99.90;;;;;;5013153;28;20025;-48
2023/08/29 06:08:57;;;;;;;4.25;3.55;;;15.70;99.90;;;;;;5013156;28;20037;-49
2023/08/29 06:11:22;;;;;;;5.30;3.55;;;15.80;99.90;;;;;;5013064;28;20138;-46
2023/08/29 06:13:48;;;;;;;5.32;3.58;;;15.80;99.90;;;;;;5034646;23;20067;-55
2023/08/29 06:16:14;;;;;;;7.50;3.20;;;15.80;99.90;;;;;;5013874;28;20025;-50
2023/08/29 06:18:39;;;;;;;3.78;3.40;;;15.90;99.90;;;;;;5013938;28;20124;-48
2023/08/29 06:21:05;;;;;;;4.32;3.40;;;15.90;99.90;;;;;;5016260;28;20029;-50
2023/08/29 06:23:31;;;;;;;6.43;3.50;;;16.00;99.90;;;;;;5017502;28;20485;-52
2023/08/29 06:25:56;;;;;;;6.70;4.20;;;16.00;99.90;;;;;;5017331;28;20029;-49
2023/08/29 06:28:22;;;;;;;3.35;3.10;;;16.10;99.90;;;;;;5017004;28;20056;-52
2023/08/29 06:30:48;;;;;;;6.45;3.65;;;16.20;99.90;;;;;;5016703;28;20029;-49
2023/08/29 06:33:13;;;;;;;5.93;4.50;;;16.20;99.90;;;;;;5017047;28;20454;-49
2023/08/29 06:35:39;;;;;;;4.95;3.42;;;16.30;99.90;;;;;;5017158;28;20021;-50
2023/08/29 06:38:05;;;;;;;5.82;3.33;;;16.40;99.90;;;;;;5017040;28;20034;-50
2023/08/29 06:40:30;;;;;;;10.30;4.40;;;16.40;99.90;;;;;;5016710;28;20032;-48
2023/08/29 06:42:56;;;;;;;7.47;3.65;;;16.50;99.90;;;;;;5016609;28;20041;-51
2023/08/29 06:45:21;;;;;;;8.70;3.40;;;16.60;99.90;;;;;;5017056;28;20100;-49
2023/08/29 06:47:47;;;;;;;5.20;3.53;;;16.60;99.90;;;;;;5017154;28;20021;-49
2023/08/29 06:50:12;;;;;;;8.85;3.60;;;16.60;99.90;;;;;;5016305;28;20112;-49
2023/08/29 06:52:38;;;;;;;9.35;4.18;;;16.60;99.90;;;;;;5016381;28;20029;-49
2023/08/29 06:55:04;;;;;;;10.40;3.85;;;16.60;99.90;;;;;;5016351;28;20022;-49
2023/08/29 06:57:29;;;;;;;7.22;3.55;;;16.70;99.90;;;;;;5016215;28;20076;-51
2023/08/29 06:59:55;;;;;;;6.25;3.00;;;16.70;99.90;;;;;;5016369;28;20042;-52
2023/08/29 07:02:20;;;;;;;5.53;3.42;;;16.70;99.90;;;;;;5016421;28;20428;-50
2023/08/29 07:04:46;;;;;;;6.88;3.15;;;16.70;99.90;;;;;;5016193;28;20033;-53
2023/08/29 07:07:12;;;;;;;5.82;3.60;;;16.70;99.90;;;;;;5016313;28;20030;-54
2023/08/29 07:09:37;;;;;;;6.47;3.88;;;16.70;99.90;;;;;;5016206;28;20494;-54
2023/08/29 07:12:03;;;;;;;6.47;3.15;;;16.80;99.90;;;;;;5033939;28;20030;-51
2023/08/29 07:14:30;;;;;;;3.20;2.88;;;16.70;99.90;;;;;;5015997;28;20037;-51
2023/08/29 07:16:55;;;;;;;4.95;2.50;;;16.80;99.90;;;;;;5016148;28;20018;-52
2023/08/29 07:19:21;;;;;;;8.93;2.75;;;16.80;99.90;;;;;;5015764;28;20044;-46
2023/08/29 07:21:47;;;;;;;4.05;2.70;;;16.80;99.90;;;;;;5015833;28;20028;-51
2023/08/29 07:24:12;;;;;;;4.88;2.88;;;16.80;99.90;;;;;;5015935;28;20027;-52
2023/08/29 07:26:38;;;;;;;5.18;2.95;;;16.90;99.90;;;;;;5015989;28;20022;-52
2023/08/29 07:29:04;;;;;;;3.28;2.58;;;16.90;99.90;;;;;;5016119;28;20025;-51
2023/08/29 07:31:30;;;;;;;4.95;3.28;;;17.00;99.90;;;;;;5015182;28;20393;-51
2023/08/29 07:33:56;;;;;;;3.63;3.13;;;17.00;99.90;;;;;;5015246;28;20458;-52
2023/08/29 07:36:22;;;;;;;3.42;3.08;;;17.00;99.90;;;;;;5015546;28;20025;-55
2023/08/29 07:38:48;;;;;;;6.82;2.80;;;17.00;99.90;;;;;;5015743;28;20065;-54
2023/08/29 07:41:14;;;;;;;2.97;2.22;;;17.00;99.90;;;;;;5015483;28;20055;-49
2023/08/29 07:43:40;;;;;;;2.47;2.28;;;17.10;99.90;;;;;;5016111;28;20400;-51
2023/08/29 07:46:05;;;;;;;3.17;2.90;;;17.10;99.90;;;;;;5015848;28;20018;-52
2023/08/29 07:48:32;;;;;;;7.28;2.95;;;17.10;99.90;;;;;;5015713;28;20032;-53
2023/08/29 07:50:57;;;;;;;2.90;2.70;;;17.10;99.90;;;;;;5015383;28;20025;-52
2023/08/29 07:53:23;;;;;;;3.63;3.33;;;17.10;99.90;;;;;;5033275;28;20037;-51
2023/08/29 07:55:48;;;;;;;4.68;2.72;;;17.20;99.90;;;;;;5015457;28;20018;-52
2023/08/29 07:58:14;;;;;;;5.00;2.60;;;17.20;99.90;;;;;;5015439;28;20044;-52
2023/08/29 08:00:39;;;;;;;4.82;2.40;;;17.30;99.90;;;;;;5014990;28;20025;-52
2023/08/29 08:03:05;;;;;;;3.92;2.92;;;17.30;99.90;;;;;;5015233;28;20025;-50
2023/08/29 08:05:30;;;;;;;2.70;2.50;;;17.30;99.90;;;;;;5014062;28;20060;-52
2023/08/29 08:07:56;;;;;;;7.32;4.03;;;17.40;99.90;;;;;;5036056;28;20053;-51
2023/08/29 08:10:23;;;;;;;2.67;2.38;;;17.40;99.90;;;;;;5014636;28;20501;-50
2023/08/29 08:12:49;;;;;;;5.43;2.40;;;17.50;99.90;;;;;;5031908;28;20052;-50
2023/08/29 08:15:15;;;;;;;3.00;2.60;;;17.70;99.90;;;;;;5013868;28;20539;-53
2023/08/29 08:17:41;;;;;;;4.22;2.72;;;17.70;99.90;;;;;;5014771;28;20400;-49
2023/08/29 08:20:10;;;;;;;3.97;2.42;;;17.80;99.90;;;;;;5013328;28;20104;-53
2023/08/29 08:22:40;;;;;;;4.57;2.75;;;17.90;99.90;;;;;;5013864;28;20040;-49
2023/08/29 08:25:07;;;;;;;2.95;2.63;;;18.00;99.90;;;;;;5014212;28;20029;-52
2023/08/29 08:27:34;;;;;;;2.78;2.35;;;18.10;99.90;;;;;;5014032;28;20068;-49
2023/08/29 08:30:00;;;;;;;3.15;2.42;;;18.30;99.90;;;;;;5014002;28;20382;-49
2023/08/29 08:32:25;;;;;;;3.15;2.13;;;18.40;99.90;;;;;;5014212;28;20022;-48
2023/08/29 08:34:51;;;;;;;5.07;2.30;;;18.50;99.90;;;;;;5013902;28;20074;-48
2023/08/29 08:37:17;;;;;;;2.10;2.00;;;18.60;99.90;;;;;;5014182;28;20024;-49
2023/08/29 08:39:42;;;;;;;2.33;2.20;;;18.80;99.90;;;;;;5013854;28;20021;-47
2023/08/29 08:42:11;;;;;;;3.03;1.83;;;18.80;99.90;;;;;;5013635;28;20528;-48
2023/08/29 08:44:37;;;;;;;4.65;1.95;;;18.80;99.90;;;;;;5013912;28;20485;-54
2023/08/29 08:47:05;;;;;;;5.00;2.42;;;18.80;99.90;;;;;;5014097;28;20026;-52
2023/08/29 08:49:31;;;;;;;2.88;2.20;;;18.80;99.90;;;;;;5013881;28;20029;-50
2023/08/29 08:51:58;;;;;;;9.45;2.10;;;18.80;99.90;;;;;;5013420;28;20021;-49
2023/08/29 08:54:24;;;;;;;2.50;2.30;;;18.80;99.90;;;;;;5013805;28;20021;-53
2023/08/29 08:56:50;;;;;;;5.22;1.80;;;18.90;99.90;;;;;;5031536;28;20091;-49
2023/08/29 08:59:16;;;;;;;2.72;2.00;;;19.00;99.90;;;;;;5031638;28;20488;-48
2023/08/29 09:01:42;;;;;;;3.65;2.42;;;19.00;99.90;;;;;;5031528;28;20028;-54
2023/08/29 09:04:09;;;;;;;2.28;1.90;;;19.10;99.90;;;;;;5031664;28;20113;-53
2023/08/29 09:06:34;;;;;;;2.80;2.20;;;19.10;99.90;;;;;;5031157;28;20121;-49
2023/08/29 09:09:23;;;;;;;4.20;2.10;;;19.10;99.90;;;;;;5013895;28;20552;-55
2023/08/29 09:11:58;;;;;;;3.22;1.92;;;19.10;99.90;;;;;;5013871;28;20021;-49
2023/08/29 09:14:24;;;;;;;;;;;19.00;99.90;;;;;;5014137;28;20033;-49
2023/08/29 09:16:57;;;;;;;3.17;1.85;;;19.10;99.90;;;;;;5013325;28;19909;-51
2023/08/29 09:19:24;;;;;;;3.42;1.58;;;19.10;99.90;;;;;;5010163;28;20037;-53
2023/08/29 09:21:50;;;;;;;2.58;2.00;;;19.20;99.90;;;;;;5013749;28;20056;-54
2023/08/29 09:24:36;;;;;;;2.05;1.85;;;19.30;99.90;;;;;;5014138;28;20029;-52
2023/08/29 09:27:09;;;;;;;1.83;1.70;;;19.30;99.90;;;;;;5015487;28;20083;-54
2023/08/29 09:29:34;;;;;;;4.93;2.45;;;19.10;99.90;;;;;;5016597;28;20060;-54
2023/08/29 09:32:10;;;;;;;2.20;2.00;;;19.10;99.90;;;;;;5014840;28;20482;-51
2023/08/29 09:34:36;;;;;;;5.60;2.28;;;19.00;99.90;;;;;;5014057;28;20036;-54
2023/08/29 09:37:04;;;;;;;1.67;1.52;;;19.10;99.90;;;;;;5014432;28;20030;-49
2023/08/29 09:39:29;;;;;;;2.88;1.67;;;19.10;99.90;;;;;;5014021;28;20182;-51
2023/08/29 09:42:04;;;;;;;1.40;1.33;;;19.10;99.90;;;;;;5013690;28;20496;-50
2023/08/29 09:44:36;;;;;;;2.60;1.50;;;19.30;99.90;;;;;;5013741;28;20378;-49
2023/08/29 09:47:01;;;;;;;1.75;1.65;;;19.60;99.90;;;;;;5013265;28;20493;-51
2023/08/29 09:49:41;;;;;;;3.50;2.13;;;19.60;99.90;;;;;;5031025;28;20136;-48
2023/08/29 09:52:07;;;;;;;2.75;1.40;;;19.70;99.90;;;;;;4998463;28;20408;-50
2023/08/29 09:54:33;;;;;;;2.08;1.50;;;19.50;99.90;;;;;;5012969;28;20111;-46
2023/08/29 09:57:05;;;;;;;1.65;1.55;;;19.70;99.90;;;;;;5016478;28;20032;-50
2023/08/29 09:59:34;;;;;;;4.43;2.25;;;19.60;99.90;;;;;;5017000;28;20033;-51
2023/08/29 10:02:01;;;;;;;2.15;1.80;;;19.60;99.90;;;;;;5016952;28;20044;-53
2023/08/29 10:04:30;;;;;;;3.05;1.98;;;19.60;99.90;;;;;;5017283;28;20029;-49
2023/08/29 10:06:58;;;;;;;6.05;2.17;;;19.50;99.90;;;;;;5016506;28;20099;-49
2023/08/29 10:09:25;;;;;;;2.40;1.67;;;19.60;99.90;;;;;;5016633;28;20030;-51
2023/08/29 10:11:52;;;;;;;2.88;1.80;;;19.70;99.90;;;;;;5015678;28;20025;-46
2023/08/29 10:14:18;;;;;;;1.85;1.40;;;19.80;99.90;;;;;;4996454;28;20440;-51
2023/08/29 10:16:46;;;;;;;2.03;1.42;;;20.00;99.90;;;;;;5016179;28;20021;-50
2023/08/29 10:19:13;;;;;;;1.80;1.60;;;20.10;99.90;;;;;;5016539;28;20097;-50
2023/08/29 10:21:42;;;;;;;1.75;1.25;;;20.20;99.90;;;;;;5016214;28;20076;-54
2023/08/29 10:24:09;;;;;;;4.72;1.40;;;20.20;99.90;;;;;;5016369;28;20572;-47
2023/08/29 10:26:36;;;;;;;1.77;1.67;;;20.10;99.90;;;;;;5016570;28;20033;-47
2023/08/29 10:29:03;;;;;;;4.07;1.38;;;20.00;99.90;;;;;;5015662;28;20104;-51
2023/08/29 10:31:30;;;;;;;3.33;1.85;;;20.00;99.90;;;;;;5015939;28;20120;-52
2023/08/29 10:33:56;;;;;;;8.40;1.60;;;20.00;99.90;;;;;;5015881;28;20021;-53
2023/08/29 10:36:24;;;;;;;1.55;1.23;;;20.00;99.90;;;;;;5016496;28;20017;-51
2023/08/29 10:38:50;;;;;;;4.03;1.70;;;19.80;99.90;;;;;;5016423;28;20021;-51
2023/08/29 10:41:15;;;;;;;2.25;1.90;;;19.80;99.90;;;;;;5016156;28;20550;-49
2023/08/29 10:43:42;;;;;;;1.80;1.48;;;19.60;99.90;;;;;;5033816;28;20033;-49
2023/08/29 10:46:10;;;;;;;3.38;1.48;;;19.60;99.90;;;;;;5015945;28;20029;-53
2023/08/29 10:48:48;;;;;;;1.50;1.25;;;19.50;99.90;;;;;;5015964;28;20034;-53
2023/08/29 10:51:19;;;;;;;3.58;1.35;;;19.50;99.90;;;;;;5015928;28;20026;-49
2023/08/29 10:53:48;;;;;;;1.40;1.30;;;19.50;99.90;;;;;;5015831;28;20408;-48
2023/08/29 10:56:17;;;;;;;3.47;1.40;;;19.40;99.90;;;;;;5015894;28;20107;-50
2023/08/29 10:58:45;;;;;;;2.40;1.23;;;19.30;99.90;;;;;;5015863;28;20056;-48
2023/08/29 11:01:30;;;;;;;7.07;1.70;;;19.30;99.90;;;;;;5015262;28;20409;-47
2023/08/29 11:04:12;;;;;;;4.20;1.50;;;19.10;99.90;;;;;;5033578;28;20030;-50
2023/08/29 11:06:53;;;;;;;7.15;1.75;;;19.10;99.90;;;;;;5014271;28;20034;-49
2023/08/29 11:09:22;;;;;;;3.70;2.10;;;19.20;99.90;;;;;;5015266;28;20033;-51
2023/08/29 11:12:16;;;;;;;8.60;1.35;;;19.10;99.90;;;;;;5015350;28;20018;-54
2023/08/29 11:15:08;;;;;;;2.53;1.80;;;19.10;99.90;;;;;;5015246;28;20061;-48
2023/08/29 11:17:34;;;;;;;3.55;1.70;;;19.00;99.90;;;;;;5010175;28;20511;-49
2023/08/29 11:20:05;;;;;;;9.02;3.40;;;19.10;99.90;;;;;;5013276;28;20033;-52
2023/08/29 11:22:31;;;;;;;5.28;1.92;;;18.80;99.90;;;;;;5014466;28;20033;-49
2023/08/29 11:24:58;;;;;;;6.57;2.30;;;18.60;99.90;;;;;;5014750;28;20032;-49
2023/08/29 11:27:28;;;;;;;5.30;3.70;;;18.40;99.90;;;;;;5014060;28;20032;-48
2023/08/29 11:29:55;;;;;;;54.95;33.95;;;18.20;99.90;;;;;;5015014;28;20029;-51
2023/08/29 11:32:21;;;;;;;11.45;3.05;;;18.00;99.90;;;;;;5015050;28;20112;-47
2023/08/29 11:34:55;;;;;;;4.45;1.83;;;17.80;99.90;;;;;;5014736;28;20045;-47
2023/08/29 11:37:24;;;;;;;4.00;1.40;;;17.60;99.90;;;;;;5015015;28;20028;-64
2023/08/29 11:39:58;;;;;;;6.72;1.70;;;17.60;99.90;;;;;;5014609;28;20041;-51
2023/08/29 11:42:28;;;;;;;1.27;1.17;;;17.70;99.90;;;;;;5031861;28;20477;-50
2023/08/29 11:44:54;;;;;;;2.20;1.15;;;17.70;99.90;;;;;;5014931;28;20547;-47
2023/08/29 11:47:20;;;;;;;3.22;1.48;;;17.70;99.90;;;;;;5014745;28;20033;-50
2023/08/29 11:49:49;;;;;;;1.45;1.30;;;17.80;99.90;;;;;;5014778;28;20352;-49
2023/08/29 11:52:18;;;;;;;2.30;1.10;;;17.90;99.90;;;;;;5014749;28;20017;-47
2023/08/29 11:54:54;;;;;;;2.03;1.35;;;17.90;99.90;;;;;;5014758;28;20022;-50
2023/08/29 11:57:19;;;;;;;3.55;1.30;;;17.80;99.90;;;;;;5014830;28;20036;-46
2023/08/29 11:59:46;;;;;;;1.02;1.00;;;17.70;99.90;;;;;;5014830;28;20464;-50
2023/08/29 12:02:17;;;;;;;4.00;1.02;;;17.70;99.90;;;;;;5014994;28;20491;-49
2023/08/29 12:04:47;;;;;;;1.00;0.82;;;17.70;99.90;;;;;;5014796;28;20057;-47
2023/08/29 12:07:15;;;;;;;2.15;1.23;;;17.70;99.90;;;;;;5015087;28;20025;-47
2023/08/29 12:09:43;;;;;;;1.05;0.95;;;17.70;99.90;;;;;;5015031;28;20052;-50
2023/08/29 12:12:09;;;;;;;2.97;1.17;;;17.60;99.90;;;;;;5015228;28;20026;-51
2023/08/29 12:14:51;;;;;;;3.33;1.17;;;17.60;99.90;;;;;;5039567;22;20065;-52
2023/08/29 12:17:18;;;;;;;3.33;1.00;;;17.50;99.90;;;;;;5032102;28;20048;-50
2023/08/29 12:19:47;;;;;;;2.45;0.93;;;17.60;99.90;;;;;;5031649;28;20022;-48
2023/08/29 12:22:13;;;;;;;2.78;1.20;;;17.60;99.90;;;;;;5031741;28;20087;-50
2023/08/29 12:24:42;;;;;;;0.90;0.88;;;17.60;99.90;;;;;;5031988;28;20047;-50
2023/08/29 12:27:08;;;;;;;3.70;1.17;;;17.70;99.90;;;;;;5032098;28;20465;-46
2023/08/29 12:29:33;;;;;;;6.38;1.48;;;17.80;99.90;;;;;;5013947;28;20040;-48
2023/08/29 12:31:59;;;;;;;1.77;1.30;;;17.90;99.90;;;;;;5031565;28;20018;-50
2023/08/29 12:34:27;;;;;;;1.23;1.10;;;18.00;99.90;;;;;;4997660;28;20032;-51
2023/08/29 12:36:53;;;;;;;1.80;1.40;;;18.10;99.90;;;;;;5031733;28;20021;-48
2023/08/29 12:39:18;;;;;;;22.77;17.23;;;18.20;99.90;;;;;;5013862;28;20508;-48
2023/08/29 12:41:44;;;;;;;12.75;9.55;;;18.30;99.90;;;;;;4997498;28;20049;-51
2023/08/29 12:44:09;;;;;;;79.07;54.30;;;18.30;99.90;;;;;;5013541;28;20428;-50
2023/08/29 12:46:35;;;;;;;80.85;54.97;;;18.30;99.90;;;;;;5031551;28;20124;-48